VABB/BOM METAR and TAF weather

Enter ICAO airport designator
Station Type Date Time Source
VABB METAR 2022/01/18 06:00 UTC NOAA

VABB 180600Z 02006KT 2500 FU NSC 30/18 Q1016 NOSIG


Station Type Date Time Source
VABB Decoded METAR 2022/01/18 06:00 UTC NOAA

Bombay / Santacruz, India (VABB) 19-07N 072-51E 14M
Jan 18, 2022 - 01:00 AM EST / 2022.01.18 0600 UTC
Wind: from the NNE (020 degrees) at 7 MPH (6 KT):0
Visibility: 1 mile(s):0
Weather: smoke
Temperature: 86 F (30 C)
Dew Point: 64 F (18 C)
Relative Humidity: 48%
Pressure (altimeter): 30.00 in. Hg (1016 hPa)
ob: VABB 180600Z 02006KT 2500 FU NSC 30/18 Q1016 NOSIG
cycle: 6

Station Type Date Time Source
VABB TAF 2022/01/18 06:18 UTC NOAA

TAF TAF VABB 180500Z 1806/1912 10005KT 2500 HZ FU NSC
BECMG 1808/1810 27010KT 3000 HZ FU FEW100
BECMG 1813/1815 34007KT
BECMG 1818/1820 02005KT 2500 BR HZ NSC
TEMPO 1901/1905 1500 BR HZ
BECMG 1904/1906 12007KT
BECMG 1908/1910 27010KT 3000 HZ FU FEW020

Example: see airport list